sensor_id;sensor_type;location;lat;lon;timestamp;temperature;humidity
73780;SHT30;62093;37.614;15.072;2023-02-18T00:00:54;14.78;60.02
73780;SHT30;62093;37.614;15.072;2023-02-18T00:03:23;14.79;60.02
73780;SHT30;62093;37.614;15.072;2023-02-18T00:05:50;14.78;60.00
73780;SHT30;62093;37.614;15.072;2023-02-18T00:08:16;14.75;60.33
73780;SHT30;62093;37.614;15.072;2023-02-18T00:10:41;14.75;60.21
73780;SHT30;62093;37.614;15.072;2023-02-18T00:13:08;14.72;60.22
73780;SHT30;62093;37.614;15.072;2023-02-18T00:15:35;14.75;60.25
73780;SHT30;62093;37.614;15.072;2023-02-18T00:18:01;14.71;60.37
73780;SHT30;62093;37.614;15.072;2023-02-18T00:20:27;14.71;60.29
73780;SHT30;62093;37.614;15.072;2023-02-18T00:22:53;14.72;60.14
73780;SHT30;62093;37.614;15.072;2023-02-18T00:25:19;14.71;60.21
73780;SHT30;62093;37.614;15.072;2023-02-18T00:27:45;14.69;60.30
73780;SHT30;62093;37.614;15.072;2023-02-18T00:30:11;14.71;59.94
73780;SHT30;62093;37.614;15.072;2023-02-18T00:32:37;14.65;60.20
73780;SHT30;62093;37.614;15.072;2023-02-18T00:35:03;14.67;60.12
73780;SHT30;62093;37.614;15.072;2023-02-18T00:37:30;14.62;60.04
73780;SHT30;62093;37.614;15.072;2023-02-18T00:39:56;14.65;60.10
73780;SHT30;62093;37.614;15.072;2023-02-18T00:42:21;14.62;60.27
73780;SHT30;62093;37.614;15.072;2023-02-18T00:44:48;14.64;60.32
73780;SHT30;62093;37.614;15.072;2023-02-18T00:47:13;14.62;60.36
73780;SHT30;62093;37.614;15.072;2023-02-18T00:49:39;14.61;60.24
73780;SHT30;62093;37.614;15.072;2023-02-18T00:52:06;14.61;60.39
73780;SHT30;62093;37.614;15.072;2023-02-18T00:54:32;14.62;60.29
73780;SHT30;62093;37.614;15.072;2023-02-18T00:56:58;14.58;60.24
73780;SHT30;62093;37.614;15.072;2023-02-18T00:59:25;14.58;60.36
73780;SHT30;62093;37.614;15.072;2023-02-18T01:01:51;14.61;60.22
73780;SHT30;62093;37.614;15.072;2023-02-18T01:04:17;14.58;60.45
73780;SHT30;62093;37.614;15.072;2023-02-18T01:06:42;14.57;60.46
73780;SHT30;62093;37.614;15.072;2023-02-18T01:09:08;14.57;60.77
73780;SHT30;62093;37.614;15.072;2023-02-18T01:11:34;14.57;60.68
73780;SHT30;62093;37.614;15.072;2023-02-18T01:14:00;14.55;60.73
73780;SHT30;62093;37.614;15.072;2023-02-18T01:16:28;14.52;60.79
73780;SHT30;62093;37.614;15.072;2023-02-18T01:18:54;14.52;60.78
73780;SHT30;62093;37.614;15.072;2023-02-18T01:21:21;14.52;60.63
73780;SHT30;62093;37.614;15.072;2023-02-18T01:23:47;14.49;60.54
73780;SHT30;62093;37.614;15.072;2023-02-18T01:26:14;14.46;60.73
73780;SHT30;62093;37.614;15.072;2023-02-18T01:28:40;14.52;60.81
73780;SHT30;62093;37.614;15.072;2023-02-18T01:31:08;14.49;60.56
73780;SHT30;62093;37.614;15.072;2023-02-18T01:33:35;14.49;60.62
73780;SHT30;62093;37.614;15.072;2023-02-18T01:36:01;14.46;60.64
73780;SHT30;62093;37.614;15.072;2023-02-18T01:38:27;14.48;60.35
73780;SHT30;62093;37.614;15.072;2023-02-18T01:40:53;14.46;60.46
73780;SHT30;62093;37.614;15.072;2023-02-18T01:43:20;14.45;60.59
73780;SHT30;62093;37.614;15.072;2023-02-18T01:46:04;14.44;60.89
73780;SHT30;62093;37.614;15.072;2023-02-18T01:48:55;14.44;60.52
73780;SHT30;62093;37.614;15.072;2023-02-18T01:51:26;14.41;60.66
73780;SHT30;62093;37.614;15.072;2023-02-18T01:54:09;14.37;60.81
73780;SHT30;62093;37.614;15.072;2023-02-18T01:59:13;14.40;60.75
73780;SHT30;62093;37.614;15.072;2023-02-18T02:01:44;14.38;60.70
73780;SHT30;62093;37.614;15.072;2023-02-18T02:04:11;14.38;60.96
73780;SHT30;62093;37.614;15.072;2023-02-18T02:06:37;14.37;60.79
73780;SHT30;62093;37.614;15.072;2023-02-18T02:09:06;14.34;60.86
73780;SHT30;62093;37.614;15.072;2023-02-18T02:20:16;14.32;60.84
73780;SHT30;62093;37.614;15.072;2023-02-18T02:29:09;14.31;60.71
73780;SHT30;62093;37.614;15.072;2023-02-18T02:37:48;14.28;60.96
73780;SHT30;62093;37.614;15.072;2023-02-18T02:51:12;14.20;61.21
73780;SHT30;62093;37.614;15.072;2023-02-18T02:53:41;14.24;61.06
73780;SHT30;62093;37.614;15.072;2023-02-18T02:56:15;14.21;61.32
73780;SHT30;62093;37.614;15.072;2023-02-18T02:58:43;14.25;61.10
73780;SHT30;62093;37.614;15.072;2023-02-18T03:01:20;14.20;61.12
73780;SHT30;62093;37.614;15.072;2023-02-18T03:04:10;14.25;61.07
73780;SHT30;62093;37.614;15.072;2023-02-18T03:07:10;14.22;61.05
73780;SHT30;62093;37.614;15.072;2023-02-18T03:15:22;14.22;61.23
73780;SHT30;62093;37.614;15.072;2023-02-18T03:21:26;14.21;61.27
73780;SHT30;62093;37.614;15.072;2023-02-18T03:23:37;14.18;61.28
73780;SHT30;62093;37.614;15.072;2023-02-18T03:26:07;14.18;61.27
73780;SHT30;62093;37.614;15.072;2023-02-18T03:28:34;14.20;61.27
73780;SHT30;62093;37.614;15.072;2023-02-18T03:31:06;14.21;61.18
73780;SHT30;62093;37.614;15.072;2023-02-18T03:33:50;14.22;60.89
73780;SHT30;62093;37.614;15.072;2023-02-18T03:36:17;14.20;60.99
73780;SHT30;62093;37.614;15.072;2023-02-18T03:38:58;14.20;61.22
73780;SHT30;62093;37.614;15.072;2023-02-18T03:41:25;14.20;61.21
73780;SHT30;62093;37.614;15.072;2023-02-18T03:43:52;14.18;61.05
73780;SHT30;62093;37.614;15.072;2023-02-18T03:46:19;14.22;61.14
73780;SHT30;62093;37.614;15.072;2023-02-18T03:48:45;14.20;61.24
73780;SHT30;62093;37.614;15.072;2023-02-18T03:51:11;14.20;61.09
73780;SHT30;62093;37.614;15.072;2023-02-18T03:53:37;14.20;61.17
73780;SHT30;62093;37.614;15.072;2023-02-18T03:56:03;14.20;61.13
73780;SHT30;62093;37.614;15.072;2023-02-18T03:58:29;14.18;61.10
73780;SHT30;62093;37.614;15.072;2023-02-18T04:00:55;14.18;61.09
73780;SHT30;62093;37.614;15.072;2023-02-18T04:03:21;14.17;61.18
73780;SHT30;62093;37.614;15.072;2023-02-18T04:05:47;14.17;61.12
73780;SHT30;62093;37.614;15.072;2023-02-18T04:08:13;14.16;61.19
73780;SHT30;62093;37.614;15.072;2023-02-18T04:10:38;14.18;61.00
73780;SHT30;62093;37.614;15.072;2023-02-18T04:13:04;14.21;61.07
73780;SHT30;62093;37.614;15.072;2023-02-18T04:15:30;14.20;60.81
73780;SHT30;62093;37.614;15.072;2023-02-18T04:17:56;14.18;60.86
73780;SHT30;62093;37.614;15.072;2023-02-18T04:20:22;14.16;60.85
73780;SHT30;62093;37.614;15.072;2023-02-18T04:22:48;14.17;60.91
73780;SHT30;62093;37.614;15.072;2023-02-18T04:25:14;14.16;60.88
73780;SHT30;62093;37.614;15.072;2023-02-18T04:27:40;14.14;60.98
73780;SHT30;62093;37.614;15.072;2023-02-18T04:30:06;14.16;60.92
73780;SHT30;62093;37.614;15.072;2023-02-18T04:32:32;14.18;60.86
73780;SHT30;62093;37.614;15.072;2023-02-18T04:34:58;14.17;60.84
73780;SHT30;62093;37.614;15.072;2023-02-18T04:37:24;14.17;60.70
73780;SHT30;62093;37.614;15.072;2023-02-18T04:39:50;14.16;60.27
73780;SHT30;62093;37.614;15.072;2023-02-18T04:42:16;14.14;60.09
73780;SHT30;62093;37.614;15.072;2023-02-18T04:44:42;14.14;60.22
73780;SHT30;62093;37.614;15.072;2023-02-18T04:47:09;14.16;60.36
73780;SHT30;62093;37.614;15.072;2023-02-18T04:49:35;14.14;60.41
73780;SHT30;62093;37.614;15.072;2023-02-18T04:52:01;14.18;60.62
73780;SHT30;62093;37.614;15.072;2023-02-18T04:54:27;14.16;60.77
73780;SHT30;62093;37.614;15.072;2023-02-18T04:56:53;14.16;60.38
73780;SHT30;62093;37.614;15.072;2023-02-18T04:59:19;14.16;60.71
73780;SHT30;62093;37.614;15.072;2023-02-18T05:01:45;14.16;60.70
73780;SHT30;62093;37.614;15.072;2023-02-18T05:04:11;14.11;60.80
73780;SHT30;62093;37.614;15.072;2023-02-18T05:06:37;14.14;60.84
73780;SHT30;62093;37.614;15.072;2023-02-18T05:09:05;14.14;60.85
73780;SHT30;62093;37.614;15.072;2023-02-18T05:11:31;14.11;60.96
73780;SHT30;62093;37.614;15.072;2023-02-18T05:13:56;14.09;60.30
73780;SHT30;62093;37.614;15.072;2023-02-18T05:16:22;14.09;60.24
73780;SHT30;62093;37.614;15.072;2023-02-18T05:18:48;14.06;60.23
73780;SHT30;62093;37.614;15.072;2023-02-18T05:21:14;14.03;60.18
73780;SHT30;62093;37.614;15.072;2023-02-18T05:23:40;14.06;60.21
73780;SHT30;62093;37.614;15.072;2023-02-18T05:26:06;14.00;60.03
73780;SHT30;62093;37.614;15.072;2023-02-18T05:28:32;14.01;60.05
73780;SHT30;62093;37.614;15.072;2023-02-18T05:30:58;14.00;59.70
73780;SHT30;62093;37.614;15.072;2023-02-18T05:33:24;13.99;59.79
73780;SHT30;62093;37.614;15.072;2023-02-18T05:35:49;14.00;59.71
73780;SHT30;62093;37.614;15.072;2023-02-18T05:38:15;13.97;59.84
73780;SHT30;62093;37.614;15.072;2023-02-18T05:40:41;13.96;59.82
73780;SHT30;62093;37.614;15.072;2023-02-18T05:43:07;13.96;59.82
73780;SHT30;62093;37.614;15.072;2023-02-18T05:45:33;13.99;59.85
73780;SHT30;62093;37.614;15.072;2023-02-18T05:47:59;13.94;59.58
73780;SHT30;62093;37.614;15.072;2023-02-18T05:50:25;13.94;59.96
73780;SHT30;62093;37.614;15.072;2023-02-18T05:52:51;13.96;59.91
73780;SHT30;62093;37.614;15.072;2023-02-18T05:55:16;13.93;59.77
73780;SHT30;62093;37.614;15.072;2023-02-18T05:57:43;13.96;60.00
73780;SHT30;62093;37.614;15.072;2023-02-18T06:00:09;13.97;60.10
73780;SHT30;62093;37.614;15.072;2023-02-18T06:02:35;13.94;59.77
73780;SHT30;62093;37.614;15.072;2023-02-18T06:05:02;13.96;59.81
73780;SHT30;62093;37.614;15.072;2023-02-18T06:07:29;13.96;59.81
73780;SHT30;62093;37.614;15.072;2023-02-18T06:09:54;13.97;59.94
73780;SHT30;62093;37.614;15.072;2023-02-18T06:12:20;14.00;59.97
73780;SHT30;62093;37.614;15.072;2023-02-18T06:14:46;13.97;59.98
73780;SHT30;62093;37.614;15.072;2023-02-18T06:17:13;13.96;60.38
73780;SHT30;62093;37.614;15.072;2023-02-18T06:19:39;14.00;60.71
73780;SHT30;62093;37.614;15.072;2023-02-18T06:22:05;14.01;61.38
73780;SHT30;62093;37.614;15.072;2023-02-18T06:24:31;14.03;61.41
73780;SHT30;62093;37.614;15.072;2023-02-18T06:26:57;14.03;61.37
73780;SHT30;62093;37.614;15.072;2023-02-18T06:29:23;13.99;61.32
73780;SHT30;62093;37.614;15.072;2023-02-18T06:31:49;14.03;61.28
73780;SHT30;62093;37.614;15.072;2023-02-18T06:34:15;14.03;61.71
73780;SHT30;62093;37.614;15.072;2023-02-18T06:36:41;14.01;61.39
73780;SHT30;62093;37.614;15.072;2023-02-18T06:39:07;14.00;61.41
73780;SHT30;62093;37.614;15.072;2023-02-18T06:41:33;14.04;61.54
73780;SHT30;62093;37.614;15.072;2023-02-18T06:43:59;14.06;61.68
73780;SHT30;62093;37.614;15.072;2023-02-18T06:46:25;14.06;61.21
73780;SHT30;62093;37.614;15.072;2023-02-18T06:48:51;14.06;61.59
73780;SHT30;62093;37.614;15.072;2023-02-18T06:51:17;14.07;61.85
73780;SHT30;62093;37.614;15.072;2023-02-18T06:53:44;14.07;61.84
73780;SHT30;62093;37.614;15.072;2023-02-18T06:56:11;14.07;61.85
73780;SHT30;62093;37.614;15.072;2023-02-18T06:58:37;14.06;62.04
73780;SHT30;62093;37.614;15.072;2023-02-18T07:01:03;14.06;61.99
73780;SHT30;62093;37.614;15.072;2023-02-18T07:03:29;14.09;62.20
73780;SHT30;62093;37.614;15.072;2023-02-18T07:05:55;14.09;62.25
73780;SHT30;62093;37.614;15.072;2023-02-18T07:08:21;14.10;62.17
73780;SHT30;62093;37.614;15.072;2023-02-18T07:10:47;14.10;62.21
73780;SHT30;62093;37.614;15.072;2023-02-18T07:13:14;14.14;62.13
73780;SHT30;62093;37.614;15.072;2023-02-18T07:15:40;14.14;62.23
73780;SHT30;62093;37.614;15.072;2023-02-18T07:18:06;14.11;62.26
73780;SHT30;62093;37.614;15.072;2023-02-18T07:20:31;14.13;62.23
73780;SHT30;62093;37.614;15.072;2023-02-18T07:22:57;14.10;62.24
73780;SHT30;62093;37.614;15.072;2023-02-18T07:25:24;14.16;62.34
73780;SHT30;62093;37.614;15.072;2023-02-18T07:27:50;14.14;62.28
73780;SHT30;62093;37.614;15.072;2023-02-18T07:30:17;14.16;62.24
73780;SHT30;62093;37.614;15.072;2023-02-18T07:32:43;14.17;62.32
73780;SHT30;62093;37.614;15.072;2023-02-18T07:35:13;14.14;62.33
73780;SHT30;62093;37.614;15.072;2023-02-18T07:37:42;14.18;62.39
73780;SHT30;62093;37.614;15.072;2023-02-18T07:40:09;14.16;62.18
73780;SHT30;62093;37.614;15.072;2023-02-18T07:42:37;14.17;62.27
73780;SHT30;62093;37.614;15.072;2023-02-18T07:45:02;14.16;62.23
73780;SHT30;62093;37.614;15.072;2023-02-18T07:47:28;14.18;62.25
73780;SHT30;62093;37.614;15.072;2023-02-18T07:49:54;14.20;62.30
73780;SHT30;62093;37.614;15.072;2023-02-18T07:52:20;14.18;62.23
73780;SHT30;62093;37.614;15.072;2023-02-18T07:54:46;14.24;61.90
73780;SHT30;62093;37.614;15.072;2023-02-18T07:57:12;14.24;62.12
73780;SHT30;62093;37.614;15.072;2023-02-18T07:59:38;14.25;62.06
73780;SHT30;62093;37.614;15.072;2023-02-18T08:02:03;14.27;61.78
73780;SHT30;62093;37.614;15.072;2023-02-18T08:04:30;14.30;61.80
73780;SHT30;62093;37.614;15.072;2023-02-18T08:06:56;14.30;61.91
73780;SHT30;62093;37.614;15.072;2023-02-18T08:09:21;14.32;61.72
73780;SHT30;62093;37.614;15.072;2023-02-18T08:11:47;14.31;61.75
73780;SHT30;62093;37.614;15.072;2023-02-18T08:14:13;14.32;61.63
73780;SHT30;62093;37.614;15.072;2023-02-18T08:16:39;14.30;61.66
73780;SHT30;62093;37.614;15.072;2023-02-18T08:19:05;14.31;61.75
73780;SHT30;62093;37.614;15.072;2023-02-18T08:21:32;14.30;61.73
73780;SHT30;62093;37.614;15.072;2023-02-18T08:23:58;14.30;61.67
73780;SHT30;62093;37.614;15.072;2023-02-18T08:26:24;14.32;61.76
73780;SHT30;62093;37.614;15.072;2023-02-18T08:28:50;14.34;61.72
73780;SHT30;62093;37.614;15.072;2023-02-18T08:31:25;14.31;61.68
73780;SHT30;62093;37.614;15.072;2023-02-18T08:33:53;14.32;61.54
73780;SHT30;62093;37.614;15.072;2023-02-18T08:36:19;14.31;61.61
73780;SHT30;62093;37.614;15.072;2023-02-18T08:38:45;14.34;61.54
73780;SHT30;62093;37.614;15.072;2023-02-18T08:41:11;14.34;61.52
73780;SHT30;62093;37.614;15.072;2023-02-18T08:43:39;14.32;61.45
73780;SHT30;62093;37.614;15.072;2023-02-18T08:46:05;14.32;61.45
73780;SHT30;62093;37.614;15.072;2023-02-18T08:48:31;14.34;61.32
73780;SHT30;62093;37.614;15.072;2023-02-18T08:50:58;14.34;61.29
73780;SHT30;62093;37.614;15.072;2023-02-18T08:53:24;14.34;61.54
73780;SHT30;62093;37.614;15.072;2023-02-18T08:55:50;14.35;61.53
73780;SHT30;62093;37.614;15.072;2023-02-18T08:58:16;14.37;61.61
73780;SHT30;62093;37.614;15.072;2023-02-18T09:00:42;14.38;61.42
73780;SHT30;62093;37.614;15.072;2023-02-18T09:03:12;14.40;61.74
73780;SHT30;62093;37.614;15.072;2023-02-18T09:05:39;14.41;61.54
73780;SHT30;62093;37.614;15.072;2023-02-18T09:08:05;14.44;61.51
73780;SHT30;62093;37.614;15.072;2023-02-18T09:10:31;14.46;61.42
73780;SHT30;62093;37.614;15.072;2023-02-18T09:12:57;14.45;61.48
73780;SHT30;62093;37.614;15.072;2023-02-18T09:15:23;14.45;61.62
73780;SHT30;62093;37.614;15.072;2023-02-18T09:17:48;14.48;61.59
73780;SHT30;62093;37.614;15.072;2023-02-18T09:20:14;14.52;61.47
73780;SHT30;62093;37.614;15.072;2023-02-18T09:22:40;14.57;61.49
73780;SHT30;62093;37.614;15.072;2023-02-18T09:25:06;14.51;61.55
73780;SHT30;62093;37.614;15.072;2023-02-18T09:27:32;14.52;61.42
73780;SHT30;62093;37.614;15.072;2023-02-18T09:29:58;14.52;61.50
73780;SHT30;62093;37.614;15.072;2023-02-18T09:32:23;14.57;61.44
73780;SHT30;62093;37.614;15.072;2023-02-18T09:34:49;14.57;61.66
73780;SHT30;62093;37.614;15.072;2023-02-18T09:37:15;14.58;61.54
73780;SHT30;62093;37.614;15.072;2023-02-18T09:39:41;14.61;61.54
73780;SHT30;62093;37.614;15.072;2023-02-18T09:42:11;14.57;61.42
73780;SHT30;62093;37.614;15.072;2023-02-18T09:44:42;14.58;61.40
73780;SHT30;62093;37.614;15.072;2023-02-18T09:47:12;14.57;61.54
73780;SHT30;62093;37.614;15.072;2023-02-18T09:49:43;14.58;61.45
73780;SHT30;62093;37.614;15.072;2023-02-18T09:52:21;14.52;61.54
73780;SHT30;62093;37.614;15.072;2023-02-18T09:54:49;14.57;61.46
73780;SHT30;62093;37.614;15.072;2023-02-18T09:59:58;14.58;61.51
73780;SHT30;62093;37.614;15.072;2023-02-18T10:02:26;14.61;61.49
73780;SHT30;62093;37.614;15.072;2023-02-18T10:04:53;14.62;61.08
73780;SHT30;62093;37.614;15.072;2023-02-18T10:07:28;14.62;61.36
73780;SHT30;62093;37.614;15.072;2023-02-18T10:09:58;14.62;61.24
73780;SHT30;62093;37.614;15.072;2023-02-18T10:12:26;14.64;61.15
73780;SHT30;62093;37.614;15.072;2023-02-18T10:14:54;14.65;61.13
73780;SHT30;62093;37.614;15.072;2023-02-18T10:17:23;14.64;61.46
73780;SHT30;62093;37.614;15.072;2023-02-18T10:19:51;14.62;61.00
73780;SHT30;62093;37.614;15.072;2023-02-18T10:22:19;14.68;60.72
73780;SHT30;62093;37.614;15.072;2023-02-18T10:24:59;14.68;60.88
73780;SHT30;62093;37.614;15.072;2023-02-18T10:27:28;14.67;61.11
73780;SHT30;62093;37.614;15.072;2023-02-18T10:29:58;14.67;61.15
73780;SHT30;62093;37.614;15.072;2023-02-18T10:32:34;14.67;61.19
73780;SHT30;62093;37.614;15.072;2023-02-18T10:41:03;14.71;61.06
73780;SHT30;62093;37.614;15.072;2023-02-18T10:43:40;14.72;61.14
73780;SHT30;62093;37.614;15.072;2023-02-18T10:51:50;14.76;60.72
73780;SHT30;62093;37.614;15.072;2023-02-18T10:54:17;14.78;60.81
73780;SHT30;62093;37.614;15.072;2023-02-18T10:56:49;14.78;60.85
73780;SHT30;62093;37.614;15.072;2023-02-18T10:59:23;14.79;60.71
73780;SHT30;62093;37.614;15.072;2023-02-18T11:01:59;14.79;60.78
73780;SHT30;62093;37.614;15.072;2023-02-18T11:04:36;14.78;60.89
73780;SHT30;62093;37.614;15.072;2023-02-18T11:07:12;14.78;60.83
73780;SHT30;62093;37.614;15.072;2023-02-18T11:09:49;14.81;60.68
73780;SHT30;62093;37.614;15.072;2023-02-18T11:12:21;14.83;60.74
73780;SHT30;62093;37.614;15.072;2023-02-18T11:17:34;14.82;60.82
73780;SHT30;62093;37.614;15.072;2023-02-18T11:20:30;14.82;60.95
73780;SHT30;62093;37.614;15.072;2023-02-18T11:23:18;14.79;60.93
73780;SHT30;62093;37.614;15.072;2023-02-18T11:25:58;14.83;60.80
73780;SHT30;62093;37.614;15.072;2023-02-18T11:28:49;14.85;60.78
73780;SHT30;62093;37.614;15.072;2023-02-18T11:31:23;14.85;60.63
73780;SHT30;62093;37.614;15.072;2023-02-18T11:33:55;14.92;60.53
73780;SHT30;62093;37.614;15.072;2023-02-18T11:36:28;14.92;60.55
73780;SHT30;62093;37.614;15.072;2023-02-18T11:38:55;14.91;60.52
73780;SHT30;62093;37.614;15.072;2023-02-18T11:41:37;14.89;60.55
73780;SHT30;62093;37.614;15.072;2023-02-18T11:44:07;14.89;60.71
73780;SHT30;62093;37.614;15.072;2023-02-18T11:50:00;14.86;60.82
73780;SHT30;62093;37.614;15.072;2023-02-18T11:52:33;14.88;60.79
73780;SHT30;62093;37.614;15.072;2023-02-18T11:57:33;14.89;60.83
73780;SHT30;62093;37.614;15.072;2023-02-18T11:59:59;14.91;60.80
73780;SHT30;62093;37.614;15.072;2023-02-18T12:04:59;14.91;60.87
73780;SHT30;62093;37.614;15.072;2023-02-18T12:07:33;14.91;60.85
73780;SHT30;62093;37.614;15.072;2023-02-18T12:13:01;14.92;60.86
73780;SHT30;62093;37.614;15.072;2023-02-18T12:21:34;14.96;60.62
73780;SHT30;62093;37.614;15.072;2023-02-18T12:23:56;14.95;60.73
73780;SHT30;62093;37.614;15.072;2023-02-18T12:43:51;15.02;60.60
73780;SHT30;62093;37.614;15.072;2023-02-18T12:56:53;15.03;60.57
73780;SHT30;62093;37.614;15.072;2023-02-18T13:05:09;15.04;60.71
73780;SHT30;62093;37.614;15.072;2023-02-18T13:07:45;15.02;60.67
73780;SHT30;62093;37.614;15.072;2023-02-18T13:18:02;15.04;60.74
73780;SHT30;62093;37.614;15.072;2023-02-18T13:20:37;15.06;60.72
73780;SHT30;62093;37.614;15.072;2023-02-18T13:23:04;15.04;60.62
73780;SHT30;62093;37.614;15.072;2023-02-18T13:25:36;15.04;60.56
73780;SHT30;62093;37.614;15.072;2023-02-18T13:28:17;15.06;60.48
73780;SHT30;62093;37.614;15.072;2023-02-18T13:31:04;15.10;60.22
73780;SHT30;62093;37.614;15.072;2023-02-18T13:39:08;15.06;60.44
73780;SHT30;62093;37.614;15.072;2023-02-18T13:41:37;15.09;60.43
73780;SHT30;62093;37.614;15.072;2023-02-18T13:46:51;15.07;60.38
73780;SHT30;62093;37.614;15.072;2023-02-18T13:49:20;15.10;60.44
73780;SHT30;62093;37.614;15.072;2023-02-18T13:51:53;15.12;60.76
73780;SHT30;62093;37.614;15.072;2023-02-18T13:54:24;15.13;60.79
73780;SHT30;62093;37.614;15.072;2023-02-18T13:57:04;15.09;60.62
73780;SHT30;62093;37.614;15.072;2023-02-18T14:04:55;15.12;60.62
73780;SHT30;62093;37.614;15.072;2023-02-18T14:09:52;15.09;60.80
73780;SHT30;62093;37.614;15.072;2023-02-18T14:31:03;15.09;60.46
73780;SHT30;62093;37.614;15.072;2023-02-18T14:33:31;15.07;60.49
73780;SHT30;62093;37.614;15.072;2023-02-18T14:42:19;15.09;60.56
73780;SHT30;62093;37.614;15.072;2023-02-18T14:50:09;15.07;60.36
73780;SHT30;62093;37.614;15.072;2023-02-18T14:52:44;15.07;60.47
73780;SHT30;62093;37.614;15.072;2023-02-18T14:55:27;15.10;60.47
73780;SHT30;62093;37.614;15.072;2023-02-18T14:58:05;15.14;60.09
73780;SHT30;62093;37.614;15.072;2023-02-18T15:00:40;15.18;60.01
73780;SHT30;62093;37.614;15.072;2023-02-18T15:03:26;15.19;60.10
73780;SHT30;62093;37.614;15.072;2023-02-18T15:05:52;15.23;60.32
73780;SHT30;62093;37.614;15.072;2023-02-18T15:08:20;15.20;60.14
73780;SHT30;62093;37.614;15.072;2023-02-18T15:10:55;15.24;60.31
73780;SHT30;62093;37.614;15.072;2023-02-18T15:13:25;15.20;60.38
73780;SHT30;62093;37.614;15.072;2023-02-18T15:15:58;15.27;60.85
73780;SHT30;62093;37.614;15.072;2023-02-18T15:18:29;15.27;60.84
73780;SHT30;62093;37.614;15.072;2023-02-18T15:20:59;15.31;61.84
73780;SHT30;62093;37.614;15.072;2023-02-18T15:23:26;15.33;61.77
73780;SHT30;62093;37.614;15.072;2023-02-18T15:25:52;15.31;61.55
73780;SHT30;62093;37.614;15.072;2023-02-18T15:28:27;15.31;62.22
73780;SHT30;62093;37.614;15.072;2023-02-18T15:30:56;15.33;62.40
73780;SHT30;62093;37.614;15.072;2023-02-18T15:33:22;15.40;63.16
73780;SHT30;62093;37.614;15.072;2023-02-18T15:35:48;15.34;62.55
73780;SHT30;62093;37.614;15.072;2023-02-18T15:38:19;15.33;62.88
73780;SHT30;62093;37.614;15.072;2023-02-18T15:40:48;15.31;63.16
73780;SHT30;62093;37.614;15.072;2023-02-18T15:43:18;15.34;64.10
73780;SHT30;62093;37.614;15.072;2023-02-18T15:45:46;15.37;64.10
73780;SHT30;62093;37.614;15.072;2023-02-18T15:48:43;15.34;64.86
73780;SHT30;62093;37.614;15.072;2023-02-18T15:51:11;15.36;65.35
73780;SHT30;62093;37.614;15.072;2023-02-18T15:53:39;15.41;65.33
73780;SHT30;62093;37.614;15.072;2023-02-18T15:56:11;15.44;65.37
73780;SHT30;62093;37.614;15.072;2023-02-18T15:58:39;15.36;65.27
73780;SHT30;62093;37.614;15.072;2023-02-18T16:01:06;15.37;65.63
73780;SHT30;62093;37.614;15.072;2023-02-18T16:03:48;15.37;64.91
73780;SHT30;62093;37.614;15.072;2023-02-18T16:06:30;15.41;65.32
73780;SHT30;62093;37.614;15.072;2023-02-18T16:11:37;15.33;65.38
73780;SHT30;62093;37.614;15.072;2023-02-18T16:14:04;15.31;64.92
73780;SHT30;62093;37.614;15.072;2023-02-18T16:16:35;15.36;65.10
73780;SHT30;62093;37.614;15.072;2023-02-18T16:19:02;15.33;65.17
73780;SHT30;62093;37.614;15.072;2023-02-18T16:21:31;15.27;65.23
73780;SHT30;62093;37.614;15.072;2023-02-18T16:24:00;15.27;65.15
73780;SHT30;62093;37.614;15.072;2023-02-18T16:29:14;15.26;65.11
73780;SHT30;62093;37.614;15.072;2023-02-18T16:31:42;15.27;64.96
73780;SHT30;62093;37.614;15.072;2023-02-18T16:34:08;15.26;64.97
73780;SHT30;62093;37.614;15.072;2023-02-18T16:36:34;15.26;64.92
73780;SHT30;62093;37.614;15.072;2023-02-18T16:39:00;15.22;64.75
73780;SHT30;62093;37.614;15.072;2023-02-18T16:41:27;15.19;64.87
73780;SHT30;62093;37.614;15.072;2023-02-18T16:43:53;15.20;64.73
73780;SHT30;62093;37.614;15.072;2023-02-18T16:46:21;15.20;64.78
73780;SHT30;62093;37.614;15.072;2023-02-18T16:48:54;15.19;64.76
73780;SHT30;62093;37.614;15.072;2023-02-18T16:51:28;15.19;64.45
73780;SHT30;62093;37.614;15.072;2023-02-18T16:53:55;15.19;64.09
73780;SHT30;62093;37.614;15.072;2023-02-18T16:56:23;15.20;63.86
73780;SHT30;62093;37.614;15.072;2023-02-18T16:58:50;15.20;63.97
73780;SHT30;62093;37.614;15.072;2023-02-18T17:01:25;15.16;63.52
73780;SHT30;62093;37.614;15.072;2023-02-18T17:03:52;15.14;63.28
73780;SHT30;62093;37.614;15.072;2023-02-18T17:06:18;15.16;63.26
73780;SHT30;62093;37.614;15.072;2023-02-18T17:08:44;15.18;63.21
73780;SHT30;62093;37.614;15.072;2023-02-18T17:11:17;15.22;63.12
73780;SHT30;62093;37.614;15.072;2023-02-18T17:13:46;15.20;62.96
73780;SHT30;62093;37.614;15.072;2023-02-18T17:16:13;15.23;62.82
73780;SHT30;62093;37.614;15.072;2023-02-18T17:18:39;15.22;62.93
73780;SHT30;62093;37.614;15.072;2023-02-18T17:21:11;15.24;62.72
73780;SHT30;62093;37.614;15.072;2023-02-18T17:23:37;15.23;62.85
73780;SHT30;62093;37.614;15.072;2023-02-18T17:26:04;15.23;62.64
73780;SHT30;62093;37.614;15.072;2023-02-18T17:28:34;15.22;62.77
73780;SHT30;62093;37.614;15.072;2023-02-18T17:31:00;15.20;62.57
73780;SHT30;62093;37.614;15.072;2023-02-18T17:33:26;15.22;62.22
73780;SHT30;62093;37.614;15.072;2023-02-18T17:35:52;15.23;62.24
73780;SHT30;62093;37.614;15.072;2023-02-18T17:38:18;15.23;62.04
73780;SHT30;62093;37.614;15.072;2023-02-18T17:40:44;15.20;61.98
73780;SHT30;62093;37.614;15.072;2023-02-18T17:43:14;15.23;61.96
73780;SHT30;62093;37.614;15.072;2023-02-18T17:45:55;15.23;62.31
73780;SHT30;62093;37.614;15.072;2023-02-18T17:48:22;15.24;62.42
73780;SHT30;62093;37.614;15.072;2023-02-18T17:50:49;15.26;62.42
73780;SHT30;62093;37.614;15.072;2023-02-18T17:53:15;15.24;62.64
73780;SHT30;62093;37.614;15.072;2023-02-18T17:55:43;15.27;62.74
73780;SHT30;62093;37.614;15.072;2023-02-18T17:58:09;15.24;62.43
73780;SHT30;62093;37.614;15.072;2023-02-18T18:00:44;15.23;62.59
73780;SHT30;62093;37.614;15.072;2023-02-18T18:03:14;15.24;62.95
73780;SHT30;62093;37.614;15.072;2023-02-18T18:05:43;15.22;62.95
73780;SHT30;62093;37.614;15.072;2023-02-18T18:08:09;15.22;63.05
73780;SHT30;62093;37.614;15.072;2023-02-18T18:10:38;15.23;63.01
73780;SHT30;62093;37.614;15.072;2023-02-18T18:13:08;15.24;63.30
73780;SHT30;62093;37.614;15.072;2023-02-18T18:15:39;15.24;63.07